createdAt,value
2023-07-30T00:00:57.990Z,52.42
2023-07-30T00:02:49.529Z,52.27
2023-07-30T00:04:40.949Z,52.27
2023-07-30T00:06:32.674Z,52.18
2023-07-30T00:08:24.967Z,52.09
2023-07-30T00:10:16.629Z,52.24
2023-07-30T00:12:09.233Z,51.92
2023-07-30T00:14:00.822Z,51.82
2023-07-30T00:15:52.612Z,51.73
2023-07-30T00:17:44.055Z,51.83
2023-07-30T00:19:36.639Z,51.64
2023-07-30T00:21:27.808Z,51.77
2023-07-30T00:23:19.063Z,51.62
2023-07-30T00:25:10.466Z,51.59
2023-07-30T00:27:02.093Z,51.51
2023-07-30T00:28:53.625Z,51.41
2023-07-30T00:30:46.277Z,51.89
2023-07-30T00:32:43.194Z,52.12
2023-07-30T00:34:36.900Z,52.34
2023-07-30T00:36:28.434Z,52.32
2023-07-30T00:38:20.363Z,52.82
2023-07-30T00:40:12.500Z,52.68
2023-07-30T00:42:04.184Z,52.78
2023-07-30T00:43:55.663Z,52.68
2023-07-30T00:45:46.788Z,52.73
2023-07-30T00:47:39.521Z,52.86
2023-07-30T00:49:30.838Z,52.46
2023-07-30T00:51:22.255Z,52.32
2023-07-30T00:53:15.582Z,52.00
2023-07-30T00:55:08.395Z,52.00
2023-07-30T00:56:59.652Z,52.12
2023-07-30T00:58:51.575Z,51.99
2023-07-30T01:00:43.392Z,51.97
2023-07-30T01:02:35.173Z,53.11
2023-07-30T01:04:26.989Z,53.56
2023-07-30T01:06:19.154Z,52.46
2023-07-30T01:08:11.537Z,52.08
2023-07-30T01:10:04.771Z,51.90
2023-07-30T01:11:56.590Z,51.95
2023-07-30T01:13:48.862Z,51.78
2023-07-30T01:15:40.717Z,52.07
2023-07-30T01:17:32.224Z,51.89
2023-07-30T01:19:23.966Z,52.16
2023-07-30T01:21:15.282Z,52.03
2023-07-30T01:23:06.425Z,52.11
2023-07-30T01:24:57.825Z,52.07
2023-07-30T01:27:08.443Z,51.85
2023-07-30T01:29:02.705Z,52.08
2023-07-30T01:30:55.956Z,52.06
2023-07-30T01:32:50.504Z,51.78
2023-07-30T01:34:42.673Z,51.76
2023-07-30T01:36:34.532Z,51.97
2023-07-30T01:38:27.407Z,52.00
2023-07-30T01:40:19.004Z,52.48
2023-07-30T01:42:13.176Z,51.98
2023-07-30T01:44:04.628Z,52.23
2023-07-30T01:45:56.318Z,51.83
2023-07-30T01:47:48.049Z,51.87
2023-07-30T01:49:39.699Z,52.09
2023-07-30T01:51:31.477Z,51.95
2023-07-30T01:53:23.271Z,52.17
2023-07-30T01:55:14.724Z,52.16
2023-07-30T01:57:05.802Z,51.95
2023-07-30T01:58:57.576Z,51.69
2023-07-30T02:00:49.281Z,51.62
2023-07-30T02:02:41.005Z,51.61
2023-07-30T02:04:32.613Z,51.48
2023-07-30T02:06:23.855Z,51.48
2023-07-30T02:08:17.192Z,51.65
2023-07-30T02:10:08.728Z,51.78
2023-07-30T02:12:00.241Z,51.46
2023-07-30T02:13:52.035Z,51.59
2023-07-30T02:15:43.975Z,51.48
2023-07-30T02:17:36.000Z,51.48
2023-07-30T02:19:27.552Z,50.68
2023-07-30T02:21:18.685Z,50.63
2023-07-30T02:23:10.107Z,51.04
2023-07-30T02:25:01.714Z,50.80
2023-07-30T02:26:53.451Z,50.81
2023-07-30T02:28:45.141Z,51.14
2023-07-30T02:30:36.863Z,51.52
2023-07-30T02:32:28.122Z,51.66
2023-07-30T02:34:20.236Z,51.37
2023-07-30T02:36:11.499Z,51.03
2023-07-30T02:38:02.886Z,51.10
2023-07-30T02:39:54.599Z,51.16
2023-07-30T02:41:46.230Z,51.08
2023-07-30T02:43:37.641Z,50.98
2023-07-30T02:45:28.761Z,51.01
2023-07-30T02:47:20.182Z,51.47
2023-07-30T02:49:11.926Z,51.06
2023-07-30T02:51:03.656Z,51.22
2023-07-30T02:52:55.171Z,51.31
2023-07-30T02:54:46.549Z,50.87
2023-07-30T02:56:38.253Z,50.36
2023-07-30T02:58:29.771Z,50.67
2023-07-30T03:00:20.900Z,50.96
2023-07-30T03:02:12.502Z,50.99
2023-07-30T03:04:05.761Z,51.80
2023-07-30T03:05:57.284Z,51.60
2023-07-30T03:07:48.427Z,51.59
2023-07-30T03:09:40.065Z,52.00
2023-07-30T03:11:31.166Z,51.71
2023-07-30T03:13:22.908Z,51.61
2023-07-30T03:15:14.355Z,51.78
2023-07-30T03:17:06.233Z,51.27
2023-07-30T03:18:57.866Z,51.09
2023-07-30T03:20:49.335Z,51.07
2023-07-30T03:22:40.487Z,51.42
2023-07-30T03:24:32.072Z,51.33
2023-07-30T03:26:23.775Z,51.55
2023-07-30T03:28:15.060Z,51.19
2023-07-30T03:30:07.153Z,51.47
2023-07-30T03:31:58.737Z,51.32
2023-07-30T03:33:49.960Z,51.10
2023-07-30T03:35:41.677Z,50.91
2023-07-30T03:37:33.175Z,51.03
2023-07-30T03:39:24.396Z,50.70
2023-07-30T03:41:15.650Z,51.12
2023-07-30T03:43:07.343Z,51.02
2023-07-30T03:44:59.084Z,51.10
2023-07-30T03:46:50.820Z,50.75
2023-07-30T03:48:42.451Z,50.82
2023-07-30T03:50:33.735Z,51.25
2023-07-30T03:52:25.420Z,51.21
2023-07-30T03:54:16.999Z,50.70
2023-07-30T03:56:08.361Z,50.94
2023-07-30T03:57:59.736Z,51.00
2023-07-30T03:59:51.456Z,50.95
2023-07-30T04:01:42.649Z,50.52
2023-07-30T04:03:34.303Z,50.38
2023-07-30T04:05:25.819Z,50.29
2023-07-30T04:07:17.396Z,50.29
2023-07-30T04:09:09.313Z,50.79
2023-07-30T04:11:00.447Z,50.86
2023-07-30T04:12:52.169Z,50.53
2023-07-30T04:14:43.319Z,50.71
2023-07-30T04:16:35.209Z,50.43
2023-07-30T04:18:26.679Z,50.33
2023-07-30T04:20:19.169Z,50.47
2023-07-30T04:22:10.657Z,50.69
2023-07-30T04:24:02.312Z,50.72
2023-07-30T04:25:53.832Z,50.61
2023-07-30T04:27:45.293Z,50.57
2023-07-30T04:29:36.663Z,50.74
2023-07-30T04:31:28.053Z,50.65
2023-07-30T04:33:19.663Z,50.84
2023-07-30T04:35:10.843Z,50.61
2023-07-30T04:37:03.804Z,50.39
2023-07-30T04:38:55.558Z,50.32
2023-07-30T04:40:47.098Z,50.62
2023-07-30T04:42:38.635Z,50.93
2023-07-30T04:44:30.218Z,51.04
2023-07-30T04:46:21.366Z,50.61
2023-07-30T04:48:13.082Z,50.36
2023-07-30T04:50:05.134Z,50.23
2023-07-30T04:51:56.702Z,50.14
2023-07-30T04:53:48.285Z,50.12
2023-07-30T04:55:39.970Z,49.52
2023-07-30T04:57:31.581Z,49.79
2023-07-30T04:59:22.882Z,49.35
2023-07-30T05:01:14.614Z,49.09
2023-07-30T05:03:06.446Z,49.94
2023-07-30T05:04:58.064Z,49.58
2023-07-30T05:06:49.940Z,50.05
2023-07-30T05:08:41.695Z,49.73
2023-07-30T05:10:33.401Z,48.77
2023-07-30T05:12:24.933Z,49.34
2023-07-30T05:14:16.396Z,48.83
2023-07-30T05:16:08.173Z,48.48
2023-07-30T05:17:59.845Z,48.53
2023-07-30T05:19:51.521Z,48.08
2023-07-30T05:21:42.893Z,48.18
2023-07-30T05:23:34.457Z,47.92
2023-07-30T05:25:25.595Z,47.74
2023-07-30T05:27:16.677Z,47.75
2023-07-30T05:29:08.399Z,48.15
2023-07-30T05:30:59.968Z,47.17
2023-07-30T05:32:51.567Z,46.96
2023-07-30T05:34:43.476Z,46.98
2023-07-30T05:36:34.697Z,47.45
2023-07-30T05:38:26.162Z,47.72
2023-07-30T05:40:17.819Z,47.10
2023-07-30T05:42:09.219Z,46.72
2023-07-30T05:44:00.505Z,46.63
2023-07-30T05:45:52.184Z,46.49
2023-07-30T05:47:44.032Z,46.56
2023-07-30T05:49:35.701Z,46.40
2023-07-30T05:51:27.021Z,46.46
2023-07-30T05:53:18.489Z,46.13
2023-07-30T05:55:10.250Z,45.47
2023-07-30T05:57:01.427Z,46.26
2023-07-30T05:58:52.587Z,45.69
2023-07-30T06:00:44.318Z,45.60
2023-07-30T06:02:35.709Z,45.60
2023-07-30T06:04:26.817Z,44.38
2023-07-30T06:06:18.142Z,44.10
2023-07-30T06:08:10.244Z,43.72
2023-07-30T06:10:01.987Z,44.78
2023-07-30T06:11:53.290Z,43.90
2023-07-30T06:13:44.644Z,43.44
2023-07-30T06:15:36.498Z,44.10
2023-07-30T06:17:28.328Z,43.19
2023-07-30T06:19:19.738Z,42.20
2023-07-30T06:21:11.326Z,43.21
2023-07-30T06:23:02.975Z,42.04
2023-07-30T06:24:55.049Z,42.75
2023-07-30T06:26:46.550Z,41.75
2023-07-30T06:28:37.898Z,42.35
2023-07-30T06:30:29.304Z,40.77
2023-07-30T06:32:20.586Z,41.12
2023-07-30T06:34:11.661Z,41.95
2023-07-30T06:36:03.065Z,40.71
2023-07-30T06:37:54.156Z,40.74
2023-07-30T06:39:45.323Z,40.70
2023-07-30T06:41:37.054Z,40.57
2023-07-30T06:43:28.631Z,40.68
2023-07-30T06:45:20.070Z,38.70
2023-07-30T06:47:11.184Z,38.58
2023-07-30T06:49:02.514Z,38.53
2023-07-30T06:50:53.906Z,38.87
2023-07-30T06:52:45.572Z,39.08
2023-07-30T06:54:39.687Z,38.70
2023-07-30T06:56:31.330Z,38.20
2023-07-30T06:58:22.859Z,38.45
2023-07-30T07:00:19.963Z,38.99
2023-07-30T07:02:11.471Z,38.96
2023-07-30T07:04:03.315Z,38.13
2023-07-30T07:05:57.272Z,37.36
2023-07-30T07:07:49.709Z,37.07
2023-07-30T07:09:41.317Z,37.86
2023-07-30T07:11:32.648Z,36.40
2023-07-30T07:13:24.273Z,36.62
2023-07-30T07:15:15.430Z,36.66
2023-07-30T07:17:07.030Z,36.57
2023-07-30T07:18:58.718Z,35.15
2023-07-30T07:20:50.443Z,36.21
2023-07-30T07:22:41.808Z,36.67
2023-07-30T07:24:33.678Z,36.42
2023-07-30T07:26:25.790Z,36.02
2023-07-30T07:28:17.711Z,35.67
2023-07-30T07:30:09.979Z,36.11
2023-07-30T07:32:01.234Z,34.39
2023-07-30T07:33:52.944Z,34.83
2023-07-30T07:35:44.552Z,34.81
2023-07-30T07:37:35.963Z,34.63
2023-07-30T07:39:27.524Z,34.89
2023-07-30T07:41:19.353Z,34.15
2023-07-30T07:43:10.850Z,33.41
2023-07-30T07:45:02.540Z,33.13
2023-07-30T07:46:54.166Z,32.47
2023-07-30T07:48:46.070Z,32.69
2023-07-30T07:50:37.449Z,33.48
2023-07-30T07:52:28.937Z,32.98
2023-07-30T07:54:20.530Z,32.99
2023-07-30T07:56:11.721Z,32.25
2023-07-30T07:58:03.216Z,32.28
2023-07-30T07:59:55.032Z,32.45
2023-07-30T08:01:46.662Z,31.58
2023-07-30T08:03:38.165Z,33.07
2023-07-30T08:05:29.718Z,31.61
2023-07-30T08:07:20.808Z,32.99
2023-07-30T08:09:12.080Z,31.85
2023-07-30T08:11:08.098Z,32.02
2023-07-30T08:12:59.412Z,32.43
2023-07-30T08:14:51.674Z,31.02
2023-07-30T08:16:43.437Z,31.72
2023-07-30T08:18:34.678Z,31.20
2023-07-30T08:20:25.834Z,29.74
2023-07-30T08:22:16.862Z,31.24
2023-07-30T08:24:08.503Z,30.91
2023-07-30T08:25:59.851Z,30.17
2023-07-30T08:27:51.662Z,30.34
2023-07-30T08:29:43.184Z,30.10
2023-07-30T08:31:34.968Z,30.35
2023-07-30T08:33:27.514Z,30.38
2023-07-30T08:35:18.851Z,30.03
2023-07-30T08:37:10.500Z,29.99
2023-07-30T08:39:03.292Z,28.61
2023-07-30T08:40:54.491Z,29.43
2023-07-30T08:42:46.211Z,29.93
2023-07-30T08:44:37.590Z,29.90
2023-07-30T08:46:29.016Z,30.16
2023-07-30T08:48:20.681Z,29.01
2023-07-30T08:50:12.369Z,30.00
2023-07-30T08:52:04.969Z,28.50
2023-07-30T08:53:58.657Z,28.72
2023-07-30T08:55:49.769Z,28.48
2023-07-30T08:57:42.410Z,27.26
2023-07-30T08:59:51.291Z,28.12
2023-07-30T09:01:45.116Z,28.11
2023-07-30T09:03:39.708Z,27.72
2023-07-30T09:05:31.773Z,27.91
2023-07-30T09:07:25.307Z,28.46
2023-07-30T09:09:17.540Z,27.51
2023-07-30T09:11:09.834Z,28.39
2023-07-30T09:13:03.921Z,27.40
2023-07-30T09:14:55.519Z,27.79
2023-07-30T09:16:47.283Z,27.39
2023-07-30T09:18:43.085Z,28.43
2023-07-30T09:20:41.379Z,28.69
2023-07-30T09:22:34.807Z,28.14
2023-07-30T09:24:26.728Z,27.34
2023-07-30T09:26:18.143Z,27.66
2023-07-30T09:28:09.668Z,26.93
2023-07-30T09:30:02.685Z,27.31
2023-07-30T09:31:55.744Z,26.99
2023-07-30T09:33:47.478Z,27.89
2023-07-30T09:35:40.481Z,27.15
2023-07-30T09:37:32.199Z,26.37
2023-07-30T09:39:25.952Z,26.16
2023-07-30T09:41:17.640Z,26.08
2023-07-30T09:43:10.314Z,26.67
2023-07-30T09:45:02.304Z,26.91
2023-07-30T09:46:53.302Z,26.86
2023-07-30T09:48:44.577Z,25.88
2023-07-30T09:50:39.238Z,26.83
2023-07-30T09:52:31.145Z,26.36
2023-07-30T09:54:23.420Z,25.50
2023-07-30T09:56:15.071Z,25.42
2023-07-30T09:58:07.021Z,26.03
2023-07-30T10:00:00.235Z,25.22
2023-07-30T10:01:57.055Z,26.59
2023-07-30T10:03:49.794Z,25.16
2023-07-30T10:05:41.500Z,26.15
2023-07-30T10:07:34.969Z,24.10
2023-07-30T10:09:30.173Z,25.53
2023-07-30T10:11:21.645Z,25.04
2023-07-30T10:13:13.337Z,25.16
2023-07-30T10:15:07.814Z,25.83
2023-07-30T10:17:01.883Z,26.82
2023-07-30T10:18:58.913Z,26.11
2023-07-30T10:20:56.075Z,26.32
2023-07-30T10:22:47.609Z,26.57
2023-07-30T10:24:42.636Z,27.87
2023-07-30T10:26:36.748Z,26.61
2023-07-30T10:28:33.507Z,27.51
2023-07-30T10:30:32.362Z,27.34
2023-07-30T10:32:24.140Z,26.95
2023-07-30T10:34:16.712Z,27.48
2023-07-30T10:36:08.153Z,26.54
2023-07-30T10:37:59.844Z,26.33
2023-07-30T10:39:51.596Z,26.94
2023-07-30T10:41:55.301Z,26.27
2023-07-30T10:43:51.376Z,27.02
2023-07-30T10:45:52.403Z,27.53
2023-07-30T10:47:44.201Z,27.08
2023-07-30T10:49:39.873Z,27.13
2023-07-30T10:51:32.824Z,27.59
2023-07-30T10:53:27.063Z,27.55
2023-07-30T10:55:18.583Z,26.93
2023-07-30T10:57:09.921Z,27.23
2023-07-30T10:59:01.081Z,27.12
2023-07-30T11:00:52.473Z,27.32
2023-07-30T11:02:44.312Z,26.60
2023-07-30T11:04:36.370Z,27.11
2023-07-30T11:06:28.310Z,27.03
2023-07-30T11:08:19.592Z,27.41
2023-07-30T11:10:11.245Z,27.07
2023-07-30T11:12:03.268Z,26.64
2023-07-30T11:13:54.738Z,25.65
2023-07-30T11:15:46.568Z,26.64
2023-07-30T11:17:38.146Z,26.17
2023-07-30T11:19:30.740Z,26.17
2023-07-30T11:21:22.289Z,26.23
2023-07-30T11:23:20.413Z,26.40
2023-07-30T11:25:18.128Z,26.61
2023-07-30T11:27:09.588Z,27.49
2023-07-30T11:29:01.149Z,26.20
2023-07-30T11:30:52.526Z,28.08
2023-07-30T11:32:46.015Z,27.07
2023-07-30T11:34:40.222Z,26.90
2023-07-30T11:36:31.647Z,27.48
2023-07-30T11:38:26.797Z,27.52
2023-07-30T11:40:18.194Z,28.04
2023-07-30T11:42:09.825Z,27.89
2023-07-30T11:44:01.581Z,28.09
2023-07-30T11:46:13.315Z,28.50
2023-07-30T11:48:12.362Z,28.51
2023-07-30T11:50:04.230Z,29.02
2023-07-30T11:52:25.145Z,29.39
2023-07-30T11:54:20.834Z,29.52
2023-07-30T11:56:18.106Z,30.21
2023-07-30T11:58:13.341Z,30.76
2023-07-30T12:00:05.403Z,30.79
2023-07-30T12:01:57.038Z,31.18
2023-07-30T12:03:48.683Z,31.52
2023-07-30T12:05:40.419Z,32.16
2023-07-30T12:07:33.806Z,31.97
2023-07-30T12:09:28.834Z,32.15
2023-07-30T12:11:23.158Z,31.55
2023-07-30T12:13:16.983Z,31.34
2023-07-30T12:15:12.599Z,31.31
2023-07-30T12:17:04.660Z,31.06
2023-07-30T12:18:56.859Z,31.07
2023-07-30T12:20:48.863Z,31.58
2023-07-30T12:22:40.536Z,31.56
2023-07-30T12:24:32.363Z,31.66
2023-07-30T12:26:24.035Z,31.68
2023-07-30T12:28:15.622Z,32.01
2023-07-30T12:30:07.964Z,32.32
2023-07-30T12:32:01.486Z,32.12
2023-07-30T12:33:56.344Z,32.64
2023-07-30T12:35:48.084Z,33.08
2023-07-30T12:37:39.713Z,32.96
2023-07-30T12:39:31.048Z,32.94
2023-07-30T12:41:26.992Z,32.78
2023-07-30T12:43:20.269Z,33.31
2023-07-30T12:45:12.256Z,33.71
2023-07-30T12:47:04.407Z,33.82
2023-07-30T12:48:55.597Z,34.11
2023-07-30T12:50:47.335Z,34.27
2023-07-30T12:52:39.202Z,33.93
2023-07-30T12:54:30.436Z,33.35
2023-07-30T12:56:21.986Z,33.32
2023-07-30T12:58:13.364Z,33.72
2023-07-30T13:00:05.959Z,33.72
2023-07-30T13:01:57.799Z,33.46
2023-07-30T13:03:50.338Z,33.28
2023-07-30T13:05:41.635Z,33.25
2023-07-30T13:07:32.798Z,32.88
2023-07-30T13:09:24.158Z,33.42
2023-07-30T13:11:15.589Z,32.83
2023-07-30T13:13:06.765Z,32.41
2023-07-30T13:14:57.967Z,31.00
2023-07-30T13:16:49.346Z,30.67
2023-07-30T13:18:41.135Z,30.57
2023-07-30T13:20:33.360Z,30.57
2023-07-30T13:22:24.842Z,30.15
2023-07-30T13:24:15.910Z,30.21
2023-07-30T13:26:07.101Z,30.03
2023-07-30T13:27:58.339Z,29.65
2023-07-30T13:29:50.246Z,30.65
2023-07-30T13:31:42.265Z,30.06
2023-07-30T13:33:34.106Z,28.93
2023-07-30T13:35:25.593Z,29.28
2023-07-30T13:37:16.811Z,29.58
2023-07-30T13:39:08.056Z,30.01
2023-07-30T13:40:59.450Z,28.73
2023-07-30T13:42:50.987Z,28.85
2023-07-30T13:44:43.263Z,28.35
2023-07-30T13:46:35.215Z,28.58
2023-07-30T13:48:27.057Z,28.63
2023-07-30T13:50:18.217Z,28.89
2023-07-30T13:52:09.739Z,29.64
2023-07-30T13:54:01.382Z,29.43
2023-07-30T13:55:53.384Z,30.01
2023-07-30T13:57:44.665Z,29.60
2023-07-30T13:59:35.787Z,29.53
2023-07-30T14:01:27.474Z,29.44
2023-07-30T14:03:18.643Z,28.75
2023-07-30T14:05:11.549Z,28.44
2023-07-30T14:07:02.797Z,28.95
2023-07-30T14:08:54.553Z,29.18
2023-07-30T14:10:46.368Z,28.25
2023-07-30T14:12:37.415Z,27.60
2023-07-30T14:14:29.097Z,28.30
2023-07-30T14:16:20.422Z,28.52
2023-07-30T14:18:12.064Z,28.56
2023-07-30T14:20:03.675Z,28.82
2023-07-30T14:21:55.206Z,29.00
2023-07-30T14:23:46.288Z,29.25
2023-07-30T14:25:38.221Z,29.13
2023-07-30T14:27:29.670Z,30.06
2023-07-30T14:29:21.267Z,29.32
2023-07-30T14:31:12.885Z,30.16
2023-07-30T14:33:04.749Z,30.49
2023-07-30T14:34:56.344Z,30.56
2023-07-30T14:36:47.993Z,30.96
2023-07-30T14:38:39.744Z,30.68
2023-07-30T14:40:31.992Z,30.91
2023-07-30T14:42:23.482Z,32.33
2023-07-30T14:44:14.895Z,33.72
2023-07-30T14:46:07.970Z,34.45
2023-07-30T14:47:59.585Z,34.87
2023-07-30T14:49:52.748Z,35.08
2023-07-30T14:51:44.473Z,35.38
2023-07-30T14:53:36.171Z,35.37
2023-07-30T14:55:27.815Z,35.92
2023-07-30T14:57:19.816Z,37.13
2023-07-30T14:59:12.022Z,40.00
2023-07-30T15:01:03.401Z,42.97
2023-07-30T15:02:55.727Z,42.56
2023-07-30T15:04:47.300Z,44.46
2023-07-30T15:06:39.175Z,44.52
2023-07-30T15:08:33.358Z,43.19
2023-07-30T15:10:24.855Z,42.79
2023-07-30T15:12:16.570Z,43.62
2023-07-30T15:14:08.196Z,44.73
2023-07-30T15:15:59.336Z,45.10
2023-07-30T15:17:50.941Z,44.63
2023-07-30T15:19:42.620Z,44.92
2023-07-30T15:21:36.563Z,45.54
2023-07-30T15:23:28.219Z,47.08
2023-07-30T15:25:19.963Z,47.66
2023-07-30T15:27:11.491Z,48.23
2023-07-30T15:29:03.092Z,48.32
2023-07-30T15:30:54.758Z,48.93
2023-07-30T15:32:46.224Z,48.75
2023-07-30T15:34:37.959Z,48.63
2023-07-30T15:36:29.572Z,49.05
2023-07-30T15:38:21.211Z,48.97
2023-07-30T15:40:13.610Z,49.23
2023-07-30T15:42:05.441Z,49.12
2023-07-30T15:43:57.036Z,49.12
2023-07-30T15:45:48.694Z,49.48
2023-07-30T15:47:40.987Z,49.34
2023-07-30T15:49:32.449Z,49.98
2023-07-30T15:51:23.940Z,50.07
2023-07-30T15:53:15.213Z,49.89
2023-07-30T15:55:06.752Z,49.75
2023-07-30T15:56:58.406Z,49.93
2023-07-30T15:58:49.869Z,49.54
2023-07-30T16:00:41.524Z,49.97
2023-07-30T16:02:34.039Z,49.78
2023-07-30T16:04:26.210Z,49.58
2023-07-30T16:06:17.804Z,49.60
2023-07-30T16:08:09.548Z,49.31
2023-07-30T16:10:00.853Z,48.52
2023-07-30T16:11:52.327Z,49.28
2023-07-30T16:13:43.882Z,48.99
2023-07-30T16:15:36.508Z,48.28
2023-07-30T16:17:29.019Z,48.50
2023-07-30T16:19:20.261Z,48.86
2023-07-30T16:21:11.974Z,48.57
2023-07-30T16:23:03.422Z,48.50
2023-07-30T16:24:55.121Z,49.12
2023-07-30T16:26:46.628Z,47.86
2023-07-30T16:28:38.520Z,47.94
2023-07-30T16:30:31.155Z,47.81
2023-07-30T16:32:24.723Z,47.36
2023-07-30T16:34:16.638Z,47.45
2023-07-30T16:36:08.298Z,47.68
2023-07-30T16:37:59.507Z,46.93
2023-07-30T16:39:50.982Z,47.44
2023-07-30T16:41:42.408Z,46.65
2023-07-30T16:43:33.566Z,46.22
2023-07-30T16:45:25.377Z,46.60
2023-07-30T16:47:17.004Z,46.17
2023-07-30T16:49:09.900Z,46.34
2023-07-30T16:51:01.540Z,46.63
2023-07-30T16:52:53.127Z,47.23
2023-07-30T16:54:44.826Z,46.81
2023-07-30T16:56:36.791Z,46.94
2023-07-30T16:58:28.534Z,47.23
2023-07-30T17:00:20.848Z,47.04
2023-07-30T17:02:12.311Z,47.58
2023-07-30T17:04:03.742Z,46.91
2023-07-30T17:06:01.777Z,46.46
2023-07-30T17:07:53.399Z,46.38
2023-07-30T17:09:45.087Z,47.06
2023-07-30T17:11:39.455Z,46.48
2023-07-30T17:13:31.534Z,47.34
2023-07-30T17:15:23.100Z,46.92
2023-07-30T17:17:14.773Z,46.56
2023-07-30T17:19:06.074Z,46.83
2023-07-30T17:20:58.680Z,46.93
2023-07-30T17:22:50.295Z,46.99
2023-07-30T17:24:41.997Z,47.02
2023-07-30T17:26:33.736Z,47.08
2023-07-30T17:28:26.509Z,47.35
2023-07-30T17:30:18.083Z,46.79
2023-07-30T17:32:09.903Z,46.61
2023-07-30T17:34:01.461Z,46.48
2023-07-30T17:35:53.081Z,46.64
2023-07-30T17:37:44.940Z,46.65
2023-07-30T17:39:37.350Z,46.87
2023-07-30T17:41:29.327Z,47.15
2023-07-30T17:43:20.560Z,46.82
2023-07-30T17:45:12.072Z,46.61
2023-07-30T17:47:04.044Z,47.17
2023-07-30T17:48:55.803Z,46.38
2023-07-30T17:50:48.373Z,46.33
2023-07-30T17:52:39.801Z,46.87
2023-07-30T17:54:31.194Z,46.44
2023-07-30T17:56:22.605Z,46.18
2023-07-30T17:58:13.959Z,46.35
2023-07-30T18:00:06.638Z,47.53
2023-07-30T18:01:58.783Z,47.49
2023-07-30T18:03:50.628Z,47.27
2023-07-30T18:05:48.190Z,47.57
2023-07-30T18:07:40.429Z,47.34
2023-07-30T18:09:31.891Z,47.53
2023-07-30T18:11:24.209Z,47.22
2023-07-30T18:13:16.178Z,47.51
2023-07-30T18:15:08.069Z,48.06
2023-07-30T18:16:59.111Z,47.18
2023-07-30T18:18:50.283Z,47.14
2023-07-30T18:20:42.303Z,47.83
2023-07-30T18:22:33.720Z,47.93
2023-07-30T18:24:25.230Z,47.74
2023-07-30T18:26:16.917Z,47.38
2023-07-30T18:28:08.317Z,47.97
2023-07-30T18:29:59.959Z,48.01
2023-07-30T18:31:51.349Z,47.94
2023-07-30T18:33:43.063Z,47.83
2023-07-30T18:35:34.564Z,47.83
2023-07-30T18:37:25.719Z,47.72
2023-07-30T18:39:17.354Z,47.89
2023-07-30T18:41:09.056Z,48.38
2023-07-30T18:43:00.383Z,49.54
2023-07-30T18:44:55.692Z,49.18
2023-07-30T18:46:47.409Z,49.20
2023-07-30T18:48:39.136Z,48.92
2023-07-30T18:50:32.219Z,48.71
2023-07-30T18:52:23.877Z,48.97
2023-07-30T18:54:15.317Z,48.76
2023-07-30T18:56:06.965Z,48.62
2023-07-30T18:57:58.206Z,49.09
2023-07-30T18:59:49.671Z,48.82
2023-07-30T19:01:41.747Z,48.85
2023-07-30T19:03:33.507Z,49.07
2023-07-30T19:05:25.138Z,48.99
2023-07-30T19:07:16.583Z,49.05
2023-07-30T19:09:08.358Z,49.39
2023-07-30T19:10:59.767Z,50.19
2023-07-30T19:12:51.291Z,50.46
2023-07-30T19:14:43.087Z,50.78
2023-07-30T19:16:34.344Z,51.28
2023-07-30T19:18:26.617Z,51.55
2023-07-30T19:20:17.795Z,51.92
2023-07-30T19:22:09.643Z,52.30
2023-07-30T19:24:01.703Z,52.21
2023-07-30T19:25:55.101Z,52.23
2023-07-30T19:27:47.047Z,52.12
2023-07-30T19:29:39.059Z,51.75
2023-07-30T19:31:30.903Z,51.55
2023-07-30T19:33:22.563Z,51.40
2023-07-30T19:35:14.028Z,51.45
2023-07-30T19:37:05.461Z,51.37
2023-07-30T19:38:58.936Z,51.72
2023-07-30T19:40:55.386Z,51.71
2023-07-30T19:42:47.056Z,51.71
2023-07-30T19:44:38.292Z,51.84
2023-07-30T19:46:30.077Z,51.59
2023-07-30T19:48:22.437Z,52.10
2023-07-30T19:50:20.937Z,51.59
2023-07-30T19:52:18.649Z,51.84
2023-07-30T19:54:12.582Z,51.72
2023-07-30T19:56:04.650Z,51.66
2023-07-30T19:57:59.357Z,51.76
2023-07-30T19:59:50.980Z,51.50
2023-07-30T20:01:42.731Z,51.80
2023-07-30T20:03:34.221Z,51.84
2023-07-30T20:05:25.888Z,52.13
2023-07-30T20:07:17.120Z,52.57
2023-07-30T20:09:08.366Z,53.16
2023-07-30T20:11:00.808Z,53.27
2023-07-30T20:12:51.988Z,53.06
2023-07-30T20:14:43.397Z,53.01
2023-07-30T20:16:35.203Z,53.02
2023-07-30T20:18:27.506Z,53.10
2023-07-30T20:20:19.710Z,53.11
2023-07-30T20:22:13.245Z,52.79
2023-07-30T20:24:06.711Z,53.05
2023-07-30T20:25:58.208Z,52.89
2023-07-30T20:27:49.398Z,53.00
2023-07-30T20:29:40.678Z,52.85
2023-07-30T20:31:37.400Z,52.73
2023-07-30T20:33:28.535Z,52.72
2023-07-30T20:35:20.033Z,52.82
2023-07-30T20:37:11.892Z,52.70
2023-07-30T20:39:03.722Z,52.65
2023-07-30T20:40:55.240Z,52.32
2023-07-30T20:42:46.445Z,52.22
2023-07-30T20:44:37.934Z,52.04
2023-07-30T20:46:29.229Z,52.04
2023-07-30T20:48:20.702Z,51.98
2023-07-30T20:50:17.271Z,52.06
2023-07-30T20:52:08.624Z,52.09
2023-07-30T20:54:00.092Z,52.20
2023-07-30T20:55:52.342Z,52.12
2023-07-30T20:57:44.028Z,52.26
2023-07-30T20:59:36.670Z,52.50
2023-07-30T21:01:28.500Z,52.55
2023-07-30T21:03:20.244Z,52.64
2023-07-30T21:05:12.278Z,52.77
2023-07-30T21:07:03.865Z,53.12
2023-07-30T21:08:55.435Z,53.25
2023-07-30T21:10:47.007Z,53.23
2023-07-30T21:12:40.011Z,53.21
2023-07-30T21:14:31.459Z,53.15
2023-07-30T21:16:23.297Z,52.79
2023-07-30T21:18:16.029Z,52.70
2023-07-30T21:20:08.380Z,52.52
2023-07-30T21:21:59.984Z,52.54
2023-07-30T21:23:51.473Z,52.95
2023-07-30T21:25:43.140Z,53.01
2023-07-30T21:27:34.851Z,53.70
2023-07-30T21:29:26.312Z,53.87
2023-07-30T21:31:17.522Z,53.58
2023-07-30T21:33:09.226Z,53.58
2023-07-30T21:35:01.046Z,54.08
2023-07-30T21:36:52.197Z,54.34
2023-07-30T21:38:43.392Z,53.99
2023-07-30T21:40:35.200Z,53.95
2023-07-30T21:42:27.728Z,54.31
2023-07-30T21:44:19.371Z,54.22
2023-07-30T21:46:10.727Z,54.63
2023-07-30T21:48:02.071Z,54.41
2023-07-30T21:49:53.561Z,54.19
2023-07-30T21:51:45.163Z,54.30
2023-07-30T21:53:36.437Z,54.94
2023-07-30T21:55:27.907Z,54.94
2023-07-30T21:57:19.586Z,54.62
2023-07-30T21:59:11.051Z,54.90
2023-07-30T22:01:02.996Z,54.53
2023-07-30T22:02:58.821Z,55.30
2023-07-30T22:04:50.204Z,55.44
2023-07-30T22:06:41.809Z,55.08
2023-07-30T22:08:33.682Z,55.25
2023-07-30T22:10:25.355Z,55.42
2023-07-30T22:12:16.779Z,55.18
2023-07-30T22:14:08.516Z,55.13
2023-07-30T22:15:59.903Z,54.90
2023-07-30T22:17:51.278Z,54.76
2023-07-30T22:19:43.008Z,55.04
2023-07-30T22:21:34.465Z,55.09
2023-07-30T22:23:27.161Z,55.20
2023-07-30T22:25:18.806Z,55.00
2023-07-30T22:27:10.011Z,54.79
2023-07-30T22:29:01.645Z,54.59
2023-07-30T22:30:53.733Z,54.75
2023-07-30T22:32:45.279Z,54.65
2023-07-30T22:34:38.252Z,54.62
2023-07-30T22:36:29.724Z,54.25
2023-07-30T22:38:21.517Z,54.30
2023-07-30T22:40:12.805Z,54.57
2023-07-30T22:42:04.525Z,54.25
2023-07-30T22:43:57.488Z,54.09
2023-07-30T22:45:48.860Z,54.37
2023-07-30T22:47:40.654Z,54.42
2023-07-30T22:49:32.441Z,54.54
2023-07-30T22:51:23.655Z,54.65
2023-07-30T22:53:15.403Z,54.56
2023-07-30T22:55:07.399Z,54.59
2023-07-30T22:56:58.760Z,54.55
2023-07-30T22:58:50.149Z,54.42
2023-07-30T23:00:41.691Z,54.56
2023-07-30T23:02:33.435Z,54.54
2023-07-30T23:04:25.082Z,54.57
2023-07-30T23:06:16.186Z,54.81
2023-07-30T23:08:07.640Z,54.50
2023-07-30T23:09:59.167Z,54.59
2023-07-30T23:11:50.836Z,55.13
2023-07-30T23:13:42.377Z,54.94
2023-07-30T23:15:34.066Z,54.91
2023-07-30T23:17:25.781Z,54.84
2023-07-30T23:19:17.418Z,54.39
2023-07-30T23:21:09.046Z,54.19
2023-07-30T23:23:00.749Z,54.16
2023-07-30T23:24:52.482Z,54.39
2023-07-30T23:26:44.186Z,54.15
2023-07-30T23:28:35.552Z,54.04
2023-07-30T23:30:27.318Z,54.00
2023-07-30T23:32:19.057Z,54.26
2023-07-30T23:34:10.756Z,53.87
2023-07-30T23:36:08.765Z,53.90
2023-07-30T23:37:59.955Z,54.04
2023-07-30T23:39:52.982Z,53.76
2023-07-30T23:41:45.545Z,53.43
2023-07-30T23:43:37.067Z,53.25
2023-07-30T23:45:28.753Z,53.44
2023-07-30T23:47:19.975Z,53.58
2023-07-30T23:49:11.680Z,53.53
2023-07-30T23:51:05.734Z,53.59
2023-07-30T23:52:58.313Z,53.33
2023-07-30T23:54:49.824Z,53.53
2023-07-30T23:56:41.816Z,53.44
2023-07-30T23:58:33.210Z,53.04
